Time,TemperatureF,DewpointF,PressureIn,WindDirection,WindDirectionDegrees,WindSpeedMPH,WindSpeedGustMPH,Humidity,HourlyPrecipIn,Conditions,Clouds,dailyrainin,SoftwareType,DateUTC
2013-07-15 00:08:00,75.6,67.1,30.09,NNW,346,1.0,4.9,75,0.00,,,-99.99,FreeWX 2.05,2013-07-15 04:08:00,
2013-07-15 00:18:00,75.6,67.1,30.09,North,-999,0.0,2.7,75,0.00,,,-99.99,FreeWX 2.05,2013-07-15 04:18:00,
2013-07-15 00:28:00,75.6,67.1,30.09,North,-999,0.0,3.1,75,0.00,,,-99.99,FreeWX 2.05,2013-07-15 04:28:00,
2013-07-15 00:38:00,75.4,66.9,30.09,North,-999,0.0,3.1,75,0.00,,,-99.99,FreeWX 2.05,2013-07-15 04:38:00,
2013-07-15 00:48:00,75.2,67.1,30.09,North,-999,0.0,3.6,76,0.00,,,-99.99,FreeWX 2.05,2013-07-15 04:48:00,
2013-07-15 00:58:00,75.2,67.1,30.09,North,-999,0.0,4.0,76,0.00,,,-99.99,FreeWX 2.05,2013-07-15 04:58:00,
2013-07-15 01:09:00,75.2,67.5,30.12,North,-999,0.0,4.9,77,0.00,,,-99.99,FreeWX 2.05,2013-07-15 05:09:00,
2013-07-15 01:19:00,75.2,67.5,30.12,North,-999,0.0,3.6,77,0.00,,,-99.99,FreeWX 2.05,2013-07-15 05:19:00,
2013-07-15 01:29:00,75.2,67.5,30.09,North,-999,0.0,4.0,77,0.00,,,-99.99,FreeWX 2.05,2013-07-15 05:29:00,
2013-07-15 01:39:00,75.2,67.5,30.12,NNW,348,2.0,4.5,77,0.00,,,-99.99,FreeWX 2.05,2013-07-15 05:39:00,
2013-07-15 01:49:00,75.2,67.5,30.12,NNW,346,1.0,4.9,77,0.00,,,-99.99,FreeWX 2.05,2013-07-15 05:49:00,
2013-07-15 01:59:00,75.2,67.5,30.09,NNW,346,2.0,4.9,77,0.00,,,-99.99,FreeWX 2.05,2013-07-15 05:59:00,
2013-07-15 02:09:00,75.2,67.5,30.12,North,-999,0.0,3.6,77,0.00,,,-99.99,FreeWX 2.05,2013-07-15 06:09:00,
2013-07-15 02:19:00,75.2,67.5,30.09,North,-999,0.0,3.1,77,0.00,,,-99.99,FreeWX 2.05,2013-07-15 06:19:00,
2013-07-15 02:29:00,75.2,67.1,30.09,North,-999,0.0,0.0,76,0.00,,,-99.99,FreeWX 2.05,2013-07-15 06:29:00,
2013-07-15 02:39:00,75.2,67.1,30.09,North,-999,0.0,4.0,76,0.00,,,-99.99,FreeWX 2.05,2013-07-15 06:39:00,
2013-07-15 02:49:00,75.2,67.5,30.09,NNW,346,1.0,4.0,77,0.00,,,-99.99,FreeWX 2.05,2013-07-15 06:49:00,
2013-07-15 02:59:00,75.2,67.5,30.09,NNW,346,2.0,4.9,77,0.00,,,-99.99,FreeWX 2.05,2013-07-15 06:59:00,
2013-07-15 03:09:00,75.4,67.6,30.09,NNW,346,1.0,4.0,77,0.00,,,-99.99,FreeWX 2.05,2013-07-15 07:09:00,
2013-07-15 03:19:00,75.4,67.6,30.09,NNW,345,1.0,4.0,77,0.00,,,-99.99,FreeWX 2.05,2013-07-15 07:19:00,
2013-07-15 03:29:00,75.4,68.0,30.09,NNW,346,2.0,4.5,78,0.00,,,-99.99,FreeWX 2.05,2013-07-15 07:29:00,
2013-07-15 03:39:00,75.4,68.0,30.09,NNW,345,2.0,4.0,78,0.00,,,-99.99,FreeWX 2.05,2013-07-15 07:39:00,
2013-07-15 03:49:00,75.2,67.8,30.09,NNW,345,2.0,4.5,78,0.00,,,-99.99,FreeWX 2.05,2013-07-15 07:49:00,
2013-07-15 03:59:00,75.2,67.5,30.09,NNW,345,2.0,5.4,77,0.00,,,-99.99,FreeWX 2.05,2013-07-15 07:59:00,
2013-07-15 04:09:00,75.2,67.5,30.09,NNW,345,2.0,4.9,77,0.00,,,-99.99,FreeWX 2.05,2013-07-15 08:09:00,
2013-07-15 04:19:00,75.2,67.5,30.09,NNW,345,1.0,4.0,77,0.00,,,-99.99,FreeWX 2.05,2013-07-15 08:19:00,
2013-07-15 04:29:00,75.2,67.5,30.09,North,-999,0.0,4.9,77,0.00,,,-99.99,FreeWX 2.05,2013-07-15 08:29:00,
2013-07-15 04:39:00,75.2,67.5,30.09,North,-999,0.0,3.6,77,0.00,,,-99.99,FreeWX 2.05,2013-07-15 08:39:00,
2013-07-15 04:49:00,75.2,67.8,30.09,North,-999,0.0,3.6,78,0.00,,,-99.99,FreeWX 2.05,2013-07-15 08:49:00,
2013-07-15 04:59:00,75.0,67.6,30.09,North,-999,0.0,3.6,78,0.00,,,-99.99,FreeWX 2.05,2013-07-15 08:59:00,
2013-07-15 05:09:00,74.8,67.5,30.09,North,-999,0.0,3.6,78,0.00,,,-99.99,FreeWX 2.05,2013-07-15 09:09:00,
2013-07-15 05:19:00,74.8,67.8,30.09,North,-999,0.0,3.1,79,0.00,,,-99.99,FreeWX 2.05,2013-07-15 09:19:00,
2013-07-15 05:29:00,74.7,67.6,30.09,North,-999,0.0,4.0,79,0.00,,,-99.99,FreeWX 2.05,2013-07-15 09:29:00,
2013-07-15 05:39:00,74.8,67.8,30.09,NNW,345,1.0,3.6,79,0.00,,,-99.99,FreeWX 2.05,2013-07-15 09:39:00,
2013-07-15 05:50:00,74.8,67.8,30.09,North,-999,0.0,4.0,79,0.00,,,-99.99,FreeWX 2.05,2013-07-15 09:50:00,
2013-07-15 06:00:00,74.7,67.6,30.09,North,-999,0.0,3.6,79,0.00,,,-99.99,FreeWX 2.05,2013-07-15 10:00:00,
2013-07-15 06:10:00,74.8,68.2,30.09,North,-999,0.0,4.0,80,0.00,,,-99.99,FreeWX 2.05,2013-07-15 10:10:00,
2013-07-15 06:20:00,74.8,68.2,30.09,North,-999,0.0,3.1,80,0.00,,,-99.99,FreeWX 2.05,2013-07-15 10:20:00,
2013-07-15 06:30:00,74.7,68.0,30.09,North,-999,0.0,3.6,80,0.00,,,-99.99,FreeWX 2.05,2013-07-15 10:30:00,
2013-07-15 06:40:00,74.8,68.2,30.09,North,-999,0.0,3.1,80,0.00,,,-99.99,FreeWX 2.05,2013-07-15 10:40:00,
2013-07-15 06:50:00,74.8,68.2,30.12,North,-999,0.0,2.7,80,0.00,,,-99.99,FreeWX 2.05,2013-07-15 10:50:00,
2013-07-15 07:00:00,74.8,68.2,30.12,North,-999,0.0,4.9,80,0.00,,,-99.99,FreeWX 2.05,2013-07-15 11:00:00,
2013-07-15 07:10:00,75.0,68.7,30.12,North,-999,0.0,3.6,81,0.00,,,-99.99,FreeWX 2.05,2013-07-15 11:10:00,
2013-07-15 07:20:00,75.2,68.9,30.12,NNW,343,1.0,4.5,81,0.00,,,-99.99,FreeWX 2.05,2013-07-15 11:20:00,
2013-07-15 07:30:00,75.6,69.3,30.12,NNW,343,2.0,4.5,81,0.00,,,-99.99,FreeWX 2.05,2013-07-15 11:30:00,
2013-07-15 07:40:00,75.9,69.6,30.12,NNW,343,1.0,4.0,81,0.00,,,-99.99,FreeWX 2.05,2013-07-15 11:40:00,
2013-07-15 07:51:00,76.1,69.8,30.12,NNW,342,1.0,4.5,81,0.00,,,-99.99,FreeWX 2.05,2013-07-15 11:51:00,
2013-07-15 08:01:00,76.5,69.8,30.12,NNW,342,2.0,5.4,80,0.00,,,-99.99,FreeWX 2.05,2013-07-15 12:01:00,
2013-07-15 08:11:00,76.6,69.6,30.12,NNW,343,2.0,4.5,79,0.00,,,-99.99,FreeWX 2.05,2013-07-15 12:11:00,
2013-07-15 08:21:00,77.0,69.6,30.12,NNW,344,2.0,5.8,78,0.00,,,-99.99,FreeWX 2.05,2013-07-15 12:21:00,
2013-07-15 08:31:00,77.0,68.5,30.12,NNW,344,2.0,4.9,75,0.00,,,-99.99,FreeWX 2.05,2013-07-15 12:31:00,
2013-07-15 08:41:00,77.2,67.1,30.12,NNW,344,2.0,5.4,71,0.00,,,-99.99,FreeWX 2.05,2013-07-15 12:41:00,
2013-07-15 08:51:00,77.4,66.0,30.12,NNW,344,3.0,5.4,68,0.00,,,-99.99,FreeWX 2.05,2013-07-15 12:51:00,
2013-07-15 09:01:00,77.7,65.8,30.12,NNW,344,2.0,4.9,67,0.00,,,-99.99,FreeWX 2.05,2013-07-15 13:01:00,
2013-07-15 09:11:00,77.9,64.2,30.12,NNW,344,2.0,4.9,63,0.00,,,-99.99,FreeWX 2.05,2013-07-15 13:11:00,
2013-07-15 09:21:00,78.6,64.9,30.12,NNW,344,1.0,4.5,63,0.00,,,-99.99,FreeWX 2.05,2013-07-15 13:21:00,
2013-07-15 09:31:00,79.0,64.8,30.12,NNW,344,1.0,4.5,62,0.00,,,-99.99,FreeWX 2.05,2013-07-15 13:31:00,
2013-07-15 09:41:00,79.3,64.2,30.12,NNW,344,1.0,4.9,60,0.00,,,-99.99,FreeWX 2.05,2013-07-15 13:41:00,
2013-07-15 09:51:00,79.7,63.7,30.12,North,-999,0.0,4.5,58,0.00,,,-99.99,FreeWX 2.05,2013-07-15 13:51:00,
2013-07-15 10:01:00,79.9,62.2,30.12,NNW,343,1.0,4.5,55,0.00,,,-99.99,FreeWX 2.05,2013-07-15 14:01:00,
2013-07-15 10:11:00,80.2,62.6,30.12,NNW,344,1.0,4.5,55,0.00,,,-99.99,FreeWX 2.05,2013-07-15 14:11:00,
2013-07-15 10:21:00,80.8,62.1,30.12,NNW,344,1.0,4.9,53,0.00,,,-99.99,FreeWX 2.05,2013-07-15 14:21:00,
2013-07-15 10:31:00,80.8,61.0,30.12,NNW,344,1.0,4.9,51,0.00,,,-99.99,FreeWX 2.05,2013-07-15 14:31:00,
2013-07-15 10:41:00,81.0,60.6,30.12,NNW,344,2.0,5.4,50,0.00,,,-99.99,FreeWX 2.05,2013-07-15 14:41:00,
2013-07-15 10:51:00,81.7,61.2,30.12,NNW,344,1.0,4.5,50,0.00,,,-99.99,FreeWX 2.05,2013-07-15 14:51:00,
2013-07-15 11:01:00,81.9,59.0,30.12,NNW,344,1.0,5.8,46,0.00,,,-99.99,FreeWX 2.05,2013-07-15 15:01:00,
2013-07-15 11:22:00,82.8,58.6,30.15,NNW,344,1.0,4.5,44,0.00,,,-99.99,FreeWX 2.05,2013-07-15 15:22:00,
2013-07-15 11:32:00,83.1,56.3,30.15,NNW,344,2.0,5.8,40,0.00,,,-99.99,FreeWX 2.05,2013-07-15 15:32:00,
2013-07-15 11:42:00,83.5,54.5,30.15,NNW,344,3.0,5.8,37,0.00,,,-99.99,FreeWX 2.05,2013-07-15 15:42:00,
2013-07-15 11:52:00,83.8,53.2,30.15,NNW,344,3.0,5.4,35,0.00,,,-99.99,FreeWX 2.05,2013-07-15 15:52:00,
2013-07-15 12:02:00,84.0,50.9,30.15,NNW,345,3.0,5.4,32,0.00,,,-99.99,FreeWX 2.05,2013-07-15 16:02:00,
2013-07-15 12:12:00,84.2,51.1,30.12,NNW,345,2.0,4.9,32,0.00,,,-99.99,FreeWX 2.05,2013-07-15 16:12:00,
2013-07-15 12:22:00,84.4,49.5,30.12,NNW,345,3.0,4.9,30,0.00,,,-99.99,FreeWX 2.05,2013-07-15 16:22:00,
2013-07-15 12:32:00,84.6,49.6,30.12,NNW,345,2.0,4.9,30,0.00,,,-99.99,FreeWX 2.05,2013-07-15 16:32:00,
2013-07-15 12:42:00,84.9,50.0,30.12,NNW,344,3.0,5.4,30,0.00,,,-99.99,FreeWX 2.05,2013-07-15 16:42:00,
2013-07-15 12:52:00,84.9,49.1,30.12,NNW,345,3.0,4.9,29,0.00,,,-99.99,FreeWX 2.05,2013-07-15 16:52:00,
2013-07-15 13:13:00,84.9,49.1,30.12,NNW,344,2.0,4.9,29,0.00,,,-99.99,FreeWX 2.05,2013-07-15 17:13:00,
2013-07-15 13:23:00,85.5,49.5,30.12,NNW,343,1.0,4.0,29,0.00,,,-99.99,FreeWX 2.05,2013-07-15 17:23:00,
2013-07-15 13:33:00,85.8,48.9,30.12,NNW,329,2.0,4.9,28,0.00,,,-99.99,FreeWX 2.05,2013-07-15 17:33:00,
2013-07-15 13:43:00,86.0,49.1,30.12,NNW,345,1.0,4.5,28,0.00,,,-99.99,FreeWX 2.05,2013-07-15 17:43:00,
2013-07-15 14:03:00,86.4,49.5,30.09,NNW,346,1.0,4.0,28,0.00,,,-99.99,FreeWX 2.05,2013-07-15 18:03:00,
2013-07-15 14:34:00,87.1,48.0,30.09,NNW,346,1.0,3.6,26,0.00,,,-99.99,FreeWX 2.05,2013-07-15 18:34:00,
2013-07-15 14:44:00,87.6,47.5,30.09,NNW,345,1.0,4.0,25,0.00,,,-99.99,FreeWX 2.05,2013-07-15 18:44:00,
2013-07-15 14:54:00,88.0,46.6,30.09,NNW,346,1.0,4.0,24,0.00,,,-99.99,FreeWX 2.05,2013-07-15 18:54:00,
2013-07-15 15:04:00,88.0,45.5,30.09,NNW,345,2.0,4.5,23,0.00,,,-99.99,FreeWX 2.05,2013-07-15 19:04:00,
2013-07-15 15:14:00,88.2,45.7,30.09,NNW,345,1.0,4.9,23,0.00,,,-99.99,FreeWX 2.05,2013-07-15 19:14:00,
2013-07-15 15:24:00,88.7,49.3,30.09,NNW,344,1.0,5.8,26,0.00,,,-99.99,FreeWX 2.05,2013-07-15 19:24:00,
2013-07-15 15:34:00,87.8,49.6,30.06,NNW,344,2.0,5.8,27,0.00,,,-99.99,FreeWX 2.05,2013-07-15 19:34:00,
2013-07-15 16:05:00,88.5,50.2,30.06,NNW,344,2.0,6.9,27,0.00,,,-99.99,FreeWX 2.05,2013-07-15 20:05:00,
2013-07-15 16:35:00,88.7,51.4,30.06,NNW,343,2.0,6.7,28,0.00,,,-99.99,FreeWX 2.05,2013-07-15 20:35:00,
2013-07-15 16:45:00,88.7,50.4,30.06,NNW,343,2.0,6.7,27,0.00,,,-99.99,FreeWX 2.05,2013-07-15 20:45:00,
2013-07-15 17:16:00,83.7,49.8,30.06,NNW,344,3.0,5.8,31,0.00,,,-99.99,FreeWX 2.05,2013-07-15 21:16:00,
2013-07-15 17:26:00,81.1,55.8,30.06,NNW,345,1.0,7.8,42,0.00,,,-99.99,FreeWX 2.05,2013-07-15 21:26:00,
2013-07-15 17:36:00,80.4,57.7,30.06,North,-999,0.0,2.7,46,0.00,,,-99.99,FreeWX 2.05,2013-07-15 21:36:00,
2013-07-15 17:46:00,80.6,59.7,30.06,North,-999,0.0,5.4,49,0.00,,,-99.99,FreeWX 2.05,2013-07-15 21:46:00,
2013-07-15 17:56:00,80.2,63.1,30.06,North,-999,0.0,4.5,56,0.00,,,-99.99,FreeWX 2.05,2013-07-15 21:56:00,
2013-07-15 18:06:00,79.9,64.8,30.06,North,-999,0.0,4.5,60,0.00,,,-99.99,FreeWX 2.05,2013-07-15 22:06:00,
2013-07-15 18:16:00,79.9,67.1,30.06,North,-999,0.0,4.5,65,0.00,,,-99.99,FreeWX 2.05,2013-07-15 22:16:00,
2013-07-15 18:37:00,79.5,68.0,30.06,North,-999,0.0,3.1,68,0.00,,,-99.99,FreeWX 2.05,2013-07-15 22:37:00,
2013-07-15 18:47:00,79.5,68.4,30.06,North,-999,0.0,3.1,69,0.00,,,-99.99,FreeWX 2.05,2013-07-15 22:47:00,
2013-07-15 18:57:00,80.1,68.9,30.06,North,-999,0.0,3.1,69,0.00,,,-99.99,FreeWX 2.05,2013-07-15 22:57:00,
2013-07-15 19:07:00,80.4,69.3,30.03,North,-999,0.0,3.1,69,0.00,,,-99.99,FreeWX 2.05,2013-07-15 23:07:00,
2013-07-15 19:17:00,80.8,69.3,30.03,North,-999,0.0,3.6,68,0.00,,,-99.99,FreeWX 2.05,2013-07-15 23:17:00,
2013-07-15 19:27:00,80.6,67.6,30.06,North,-999,0.0,3.6,65,0.00,,,-99.99,FreeWX 2.05,2013-07-15 23:27:00,
2013-07-15 19:47:00,80.2,65.1,30.06,North,-999,0.0,3.1,60,0.00,,,-99.99,FreeWX 2.05,2013-07-15 23:47:00,
2013-07-15 19:57:00,80.6,64.4,30.06,North,-999,0.0,0.0,58,0.00,,,-99.99,FreeWX 2.05,2013-07-15 23:57:00,
2013-07-15 20:07:00,80.6,63.5,30.06,North,-999,0.0,3.6,56,0.00,,,-99.99,FreeWX 2.05,2013-07-16 00:07:00,
2013-07-15 20:17:00,80.4,62.2,30.06,North,-999,0.0,3.1,54,0.00,,,-99.99,FreeWX 2.05,2013-07-16 00:17:00,
2013-07-15 20:27:00,80.2,61.5,30.06,North,-999,0.0,3.1,53,0.00,,,-99.99,FreeWX 2.05,2013-07-16 00:27:00,
2013-07-15 20:37:00,80.2,61.5,30.06,North,-999,0.0,4.5,53,0.00,,,-99.99,FreeWX 2.05,2013-07-16 00:37:00,
2013-07-15 20:47:00,80.1,61.3,30.06,NNW,342,1.0,3.6,53,0.00,,,-99.99,FreeWX 2.05,2013-07-16 00:47:00,
2013-07-15 20:57:00,80.1,61.3,30.09,North,-999,0.0,3.1,53,0.00,,,-99.99,FreeWX 2.05,2013-07-16 00:57:00,
2013-07-15 21:08:00,79.9,61.7,30.09,North,-999,0.0,3.1,54,0.00,,,-99.99,FreeWX 2.05,2013-07-16 01:08:00,
2013-07-15 21:18:00,79.9,62.2,30.09,North,-999,0.0,3.6,55,0.00,,,-99.99,FreeWX 2.05,2013-07-16 01:18:00,
2013-07-15 21:28:00,79.9,62.8,30.09,North,-999,0.0,3.6,56,0.00,,,-99.99,FreeWX 2.05,2013-07-16 01:28:00,
2013-07-15 21:38:00,79.9,63.3,30.09,North,-999,0.0,3.6,57,0.00,,,-99.99,FreeWX 2.05,2013-07-16 01:38:00,
2013-07-15 21:58:00,79.9,63.7,30.09,North,-999,0.0,2.7,58,0.00,,,-99.99,FreeWX 2.05,2013-07-16 01:58:00,
2013-07-15 22:08:00,79.7,64.0,30.09,North,-999,0.0,3.6,59,0.00,,,-99.99,FreeWX 2.05,2013-07-16 02:08:00,
2013-07-15 22:18:00,79.5,64.4,30.09,NNW,341,1.0,3.6,60,0.00,,,-99.99,FreeWX 2.05,2013-07-16 02:18:00,
2013-07-15 22:28:00,79.3,65.1,30.12,North,-999,0.0,4.0,62,0.00,,,-99.99,FreeWX 2.05,2013-07-16 02:28:00,
2013-07-15 22:38:00,79.5,65.8,30.12,North,-999,0.0,4.0,63,0.00,,,-99.99,FreeWX 2.05,2013-07-16 02:38:00,
2013-07-15 22:48:00,79.5,65.8,30.12,North,-999,0.0,3.1,63,0.00,,,-99.99,FreeWX 2.05,2013-07-16 02:48:00,
2013-07-15 22:58:00,79.5,65.8,30.12,North,-999,0.0,0.0,63,0.00,,,-99.99,FreeWX 2.05,2013-07-16 02:58:00,
2013-07-15 23:08:00,79.5,65.8,30.12,North,-999,0.0,0.0,63,0.00,,,-99.99,FreeWX 2.05,2013-07-16 03:08:00,
2013-07-15 23:18:00,79.5,65.8,30.12,North,-999,0.0,3.1,63,0.00,,,-99.99,FreeWX 2.05,2013-07-16 03:18:00,
2013-07-15 23:39:00,79.3,65.7,30.12,North,350,1.0,4.5,63,0.00,,,-99.99,FreeWX 2.05,2013-07-16 03:39:00,
2013-07-15 23:49:00,79.3,65.7,30.12,North,-999,0.0,4.0,63,0.00,,,-99.99,FreeWX 2.05,2013-07-16 03:49:00,
2013-07-15 23:59:00,79.2,65.5,30.12,North,-999,0.0,4.0,63,0.00,,,-99.99,FreeWX 2.05,2013-07-16 03:59:00,